KGRI

Central Nebraska Regional Airport

Grand Island, Nebraska, USA
METAR KGRI 161153Z AUTO 31005KT 10SM CLR M02/M04 A3024 RMK AO2 SLP262 T10171044 10000 21022 53011
Observed Flight Rules
Dec-16 @ 11:53 UTC (52 minutes ago) Visual Flight Rules
Wind Visibility Clouds
310° at 5 knots 10 miles
  • Clear skies
Temperatures Readings
Current -2°C / 28°F
Dewpoint -4°C / 25°F
Humidity 86%
Altimeter 30.24" Hg
Pressure 1026.2 hPa
Elevation 561
METAR KGRI 161153Z AUTO 31005KT 10SM CLR M02/M04 A3024 RMK AO2 SLP262 T10171044 10000 21022 53011
Observed Flight Rules
Dec-16 @ 11:53 UTC
(52 minutes ago)
VFR
Wind Visibility
310° at 5 knots 10 miles
Clouds
  • Clear skies
Temperature Dewpoint
-2°C / 28°F -4°C / 25°F
Humidity Altimeter Pressure
86% 30.24" Hg 1026.2 hPa